createdAt,value
2023-10-04T00:01:54.587Z,94.90
2023-10-04T00:06:55.469Z,94.80
2023-10-04T00:11:56.455Z,93.28
2023-10-04T00:16:56.336Z,93.99
2023-10-04T00:21:57.274Z,95.62
2023-10-04T00:26:58.298Z,95.82
2023-10-04T00:31:58.181Z,94.70
2023-10-04T00:37:00.191Z,95.31
2023-10-04T00:42:00.143Z,94.50
2023-10-04T00:46:59.020Z,94.60
2023-10-04T00:51:59.920Z,95.66
2023-10-04T00:57:04.786Z,96.47
2023-10-04T01:02:02.644Z,96.47
2023-10-04T01:07:02.178Z,96.68
2023-10-04T01:12:01.127Z,97.03
2023-10-04T01:17:02.038Z,96.01
2023-10-04T01:22:02.997Z,95.70
2023-10-04T01:27:04.887Z,96.31
2023-10-04T01:32:04.807Z,96.72
2023-10-04T01:37:04.685Z,97.13
2023-10-04T01:42:03.642Z,97.38
2023-10-04T01:47:04.537Z,97.89
2023-10-04T01:52:06.443Z,99.36
2023-10-04T01:57:06.428Z,98.95
2023-10-04T02:02:06.368Z,99.77
2023-10-04T02:07:05.327Z,99.46
2023-10-04T02:12:05.257Z,99.46
2023-10-04T02:17:07.332Z,99.99
2023-10-04T02:22:07.170Z,99.99
2023-10-04T02:27:06.115Z,99.99
2023-10-04T02:32:07.565Z,99.66
2023-10-04T02:37:07.450Z,99.87
2023-10-04T02:42:05.748Z,99.26
2023-10-04T02:47:06.658Z,99.36
2023-10-04T02:52:07.535Z,99.56
2023-10-04T02:57:09.403Z,99.01
2023-10-04T03:02:08.410Z,99.11
2023-10-04T03:07:09.518Z,99.26
2023-10-04T03:12:10.411Z,99.46
2023-10-04T03:17:11.417Z,99.99
2023-10-04T03:22:13.301Z,99.87
2023-10-04T03:27:12.216Z,99.99
2023-10-04T03:32:14.127Z,99.97
2023-10-04T03:37:13.212Z,99.87
2023-10-04T03:42:14.077Z,99.62
2023-10-04T03:47:15.984Z,99.05
2023-10-04T03:52:15.051Z,98.80
2023-10-04T03:57:17.057Z,98.91
2023-10-04T04:02:16.993Z,99.01
2023-10-04T04:07:15.925Z,99.99
2023-10-04T04:12:17.892Z,99.77
2023-10-04T04:17:16.742Z,99.62
2023-10-04T04:22:17.649Z,99.82
2023-10-04T04:27:19.718Z,99.82
2023-10-04T04:32:18.691Z,99.77
2023-10-04T04:37:20.620Z,99.82
2023-10-04T04:42:19.548Z,99.62
2023-10-04T04:47:20.414Z,99.66
2023-10-04T04:52:21.414Z,99.56
2023-10-04T04:57:24.350Z,99.36
2023-10-04T05:02:23.480Z,99.36
2023-10-04T05:07:25.419Z,99.36
2023-10-04T05:12:24.539Z,99.56
2023-10-04T05:17:25.417Z,99.77
2023-10-04T05:22:25.386Z,99.56
2023-10-04T05:27:27.372Z,98.95
2023-10-04T05:32:26.437Z,98.65
2023-10-04T05:37:27.381Z,98.24
2023-10-04T05:42:28.678Z,98.03
2023-10-04T05:47:29.692Z,98.95
2023-10-04T05:52:34.460Z,98.85
2023-10-04T05:57:31.497Z,98.70
2023-10-04T06:02:33.478Z,97.69
2023-10-04T06:07:32.328Z,97.23
2023-10-04T06:12:33.312Z,96.52
2023-10-04T06:17:34.299Z,96.37
2023-10-04T06:22:35.430Z,97.19
2023-10-04T06:27:36.513Z,94.70
2023-10-04T06:32:37.631Z,94.50
2023-10-04T06:37:38.855Z,93.64
2023-10-04T06:43:29.701Z,93.64
2023-10-04T06:47:40.676Z,94.57
2023-10-04T06:52:41.574Z,93.30
2023-10-04T06:57:42.605Z,90.88
2023-10-04T07:02:43.461Z,91.50
2023-10-04T07:07:44.331Z,87.40
2023-10-04T07:12:45.316Z,82.68
2023-10-04T07:17:46.271Z,84.36
2023-10-04T07:22:47.122Z,82.67
2023-10-04T07:27:48.224Z,80.58
2023-10-04T07:32:50.115Z,80.27
2023-10-04T07:37:50.092Z,80.46
2023-10-04T07:42:50.062Z,79.32
2023-10-04T07:47:49.076Z,80.46
2023-10-04T07:52:49.984Z,78.41
2023-10-04T07:57:51.113Z,76.66
2023-10-04T08:02:52.129Z,78.11
2023-10-04T08:07:53.199Z,75.71
2023-10-04T08:12:55.105Z,75.31
2023-10-04T08:17:55.064Z,74.06
2023-10-04T08:22:55.019Z,71.50
2023-10-04T08:27:53.983Z,71.50
2023-10-04T08:32:56.025Z,73.75
2023-10-04T08:37:55.994Z,74.66
2023-10-04T08:42:55.062Z,71.84
2023-10-04T08:47:55.972Z,69.55
2023-10-04T08:52:57.001Z,71.47
2023-10-04T08:58:00.775Z,68.51
2023-10-04T09:02:59.024Z,69.78
2023-10-04T09:07:57.971Z,67.30
2023-10-04T09:13:00.025Z,65.92
2023-10-04T09:18:00.270Z,67.66
2023-10-04T09:22:59.245Z,66.35
2023-10-04T09:28:01.420Z,68.41
2023-10-04T09:33:01.316Z,67.90
2023-10-04T09:38:00.289Z,68.74
2023-10-04T09:43:01.250Z,66.09
2023-10-04T09:48:03.214Z,67.37
2023-10-04T09:53:02.249Z,66.86
2023-10-04T09:58:05.141Z,67.67
2023-10-04T10:03:05.096Z,67.50
2023-10-04T10:08:04.109Z,67.80
2023-10-04T10:13:05.082Z,67.30
2023-10-04T10:18:06.033Z,66.25
2023-10-04T10:23:07.057Z,67.88
2023-10-04T10:28:08.230Z,64.42
2023-10-04T10:33:11.226Z,65.76
2023-10-04T10:38:11.299Z,65.26
2023-10-04T10:43:10.343Z,64.06
2023-10-04T10:48:11.313Z,63.51
2023-10-04T10:53:13.266Z,65.59
2023-10-04T10:58:12.314Z,64.73
2023-10-04T11:03:13.296Z,62.82
2023-10-04T11:08:14.223Z,63.90
2023-10-04T11:13:17.240Z,62.99
2023-10-04T11:18:16.274Z,61.99
2023-10-04T11:23:17.643Z,65.33
2023-10-04T11:28:18.507Z,63.96
2023-10-04T11:33:19.444Z,63.70
2023-10-04T11:38:20.501Z,64.89
2023-10-04T11:43:21.518Z,65.06
2023-10-04T11:48:23.484Z,62.92
2023-10-04T11:53:22.461Z,63.12
2023-10-04T11:58:24.401Z,64.56
2023-10-04T12:03:23.350Z,64.76
2023-10-04T12:08:25.304Z,63.29
2023-10-04T12:13:24.197Z,63.90
2023-10-04T12:18:25.138Z,64.80
2023-10-04T12:23:27.137Z,63.29
2023-10-04T12:28:26.981Z,63.90
2023-10-04T12:33:26.154Z,62.32
2023-10-04T12:38:31.333Z,63.22
2023-10-04T12:43:27.212Z,62.45
2023-10-04T12:48:28.185Z,62.22
2023-10-04T12:53:29.076Z,61.61
2023-10-04T12:58:32.358Z,61.71
2023-10-04T13:03:32.487Z,62.42
2023-10-04T13:08:31.474Z,61.71
2023-10-04T13:13:33.176Z,61.61
2023-10-04T13:18:33.185Z,60.71
2023-10-04T13:23:34.074Z,61.88
2023-10-04T13:28:33.021Z,61.61
2023-10-04T13:33:36.055Z,60.31
2023-10-04T13:38:36.002Z,61.01
2023-10-04T13:43:35.924Z,60.81
2023-10-04T13:48:33.989Z,59.91
2023-10-04T13:53:35.936Z,59.47
2023-10-04T13:58:36.896Z,59.80
2023-10-04T14:03:35.860Z,61.31
2023-10-04T14:08:37.876Z,60.65
2023-10-04T14:13:35.780Z,59.65
2023-10-04T14:18:38.776Z,58.94
2023-10-04T14:23:38.799Z,58.97
2023-10-04T14:28:37.734Z,58.67
2023-10-04T14:33:38.710Z,58.77
2023-10-04T14:38:40.055Z,60.58
2023-10-04T14:43:41.036Z,59.80
2023-10-04T14:48:43.019Z,60.81
2023-10-04T14:53:42.047Z,60.53
2023-10-04T14:58:42.961Z,61.44
2023-10-04T15:03:44.055Z,60.91
2023-10-04T15:08:45.009Z,60.91
2023-10-04T15:13:46.994Z,62.02
2023-10-04T15:18:46.938Z,62.15
2023-10-04T15:23:45.871Z,62.58
2023-10-04T15:28:46.819Z,62.98
2023-10-04T15:33:48.763Z,64.29
2023-10-04T15:38:47.720Z,63.18
2023-10-04T15:43:48.593Z,64.12
2023-10-04T15:48:50.624Z,64.35
2023-10-04T15:53:49.619Z,64.25
2023-10-04T15:58:50.689Z,65.26
2023-10-04T16:03:51.790Z,65.06
2023-10-04T16:08:52.741Z,64.45
2023-10-04T16:13:54.652Z,65.29
2023-10-04T16:18:53.607Z,64.95
2023-10-04T16:23:54.572Z,65.99
2023-10-04T16:28:55.573Z,72.74
2023-10-04T16:34:00.483Z,73.11
2023-10-04T16:38:57.420Z,73.65
2023-10-04T16:43:58.353Z,76.82
2023-10-04T16:48:59.541Z,76.95
2023-10-04T16:54:01.485Z,78.34
2023-10-04T16:59:00.442Z,78.44
2023-10-04T17:04:01.573Z,79.08
2023-10-04T17:09:03.082Z,79.57
2023-10-04T17:14:02.890Z,81.73
2023-10-04T17:19:03.457Z,82.44
2023-10-04T17:24:03.061Z,81.67
2023-10-04T17:29:03.603Z,83.09
2023-10-04T17:34:04.514Z,83.83
2023-10-04T17:39:04.299Z,83.73
2023-10-04T17:44:04.056Z,83.06
2023-10-04T17:49:03.963Z,83.81
2023-10-04T17:54:04.718Z,84.32
2023-10-04T17:59:04.556Z,84.22
2023-10-04T18:04:04.700Z,85.27
2023-10-04T18:09:05.576Z,85.68
2023-10-04T18:14:07.343Z,87.45
2023-10-04T18:19:05.160Z,88.81
2023-10-04T18:24:04.997Z,89.46
2023-10-04T18:29:04.643Z,89.76
2023-10-04T18:34:04.473Z,90.17
2023-10-04T18:39:04.326Z,91.03
2023-10-04T18:44:03.949Z,91.53
2023-10-04T18:49:03.678Z,91.64
2023-10-04T18:54:03.492Z,91.03
2023-10-04T18:59:03.200Z,90.92
2023-10-04T19:04:04.150Z,92.19
2023-10-04T19:09:04.007Z,92.70
2023-10-04T19:14:04.150Z,92.74
2023-10-04T19:19:03.976Z,92.54
2023-10-04T19:24:06.753Z,92.33
2023-10-04T19:29:04.539Z,92.79
2023-10-04T19:34:04.382Z,93.40
2023-10-04T19:39:06.927Z,92.99
2023-10-04T19:44:05.377Z,93.09
2023-10-04T19:49:05.154Z,93.03
2023-10-04T19:54:05.879Z,93.54
2023-10-04T19:59:05.487Z,94.81
2023-10-04T20:04:05.434Z,94.14
2023-10-04T20:09:04.224Z,94.85
2023-10-04T20:14:06.016Z,94.85
2023-10-04T20:19:05.744Z,95.41
2023-10-04T20:24:05.698Z,95.67
2023-10-04T20:29:05.269Z,95.57
2023-10-04T20:34:04.945Z,95.16
2023-10-04T20:39:04.340Z,94.34
2023-10-04T20:44:04.710Z,92.27
2023-10-04T20:49:05.931Z,89.38
2023-10-04T20:54:07.107Z,87.06
2023-10-04T20:59:08.250Z,87.12
2023-10-04T21:04:09.528Z,86.00
2023-10-04T21:09:08.831Z,85.90
2023-10-04T21:14:09.859Z,88.26
2023-10-04T21:19:10.883Z,88.61
2023-10-04T21:24:18.500Z,88.26
2023-10-04T21:29:11.548Z,87.92
2023-10-04T21:34:13.669Z,86.65
2023-10-04T21:39:13.005Z,86.15
2023-10-04T21:44:13.922Z,87.00
2023-10-04T21:49:14.825Z,88.10
2023-10-04T21:54:15.860Z,89.36
2023-10-04T21:59:18.844Z,90.53
2023-10-04T22:04:17.782Z,91.59
2023-10-04T22:09:18.701Z,92.00
2023-10-04T22:14:18.662Z,92.45
2023-10-04T22:19:19.695Z,92.96
2023-10-04T22:24:20.932Z,93.47
2023-10-04T22:29:32.932Z,93.92
2023-10-04T22:34:22.845Z,95.04
2023-10-04T22:39:24.853Z,95.19
2023-10-04T22:44:24.803Z,95.13
2023-10-04T22:49:24.868Z,95.85
2023-10-04T22:54:23.847Z,95.95
2023-10-04T22:59:24.833Z,96.77
2023-10-04T23:04:25.973Z,95.50
2023-10-04T23:09:27.019Z,96.00
2023-10-04T23:14:28.024Z,96.14
2023-10-04T23:19:29.091Z,96.80
2023-10-04T23:24:30.214Z,98.29
2023-10-04T23:29:31.212Z,97.37
2023-10-04T23:34:36.118Z,96.96
2023-10-04T23:39:33.129Z,97.52
2023-10-04T23:44:34.096Z,98.24
2023-10-04T23:49:36.128Z,99.15
2023-10-04T23:54:35.129Z,99.66
2023-10-04T23:59:36.086Z,97.92
